Time;durP1;ratioP1;P1;durP2;ratioP2;P2;SDS_P1;SDS_P2;PMS_P1;PMS_P2;Temp;Humidity;BMP_temperature;BMP_pressure;BME280_temperature;BME280_humidity;BME280_pressure;Samples;Min_cycle;Max_cycle;Signal;HPM_P1;HPM_P2
2021/04/12 00:01:39;;;;;;;9.52;8.40;;;3.10;99.90;;;;;;463506;256;27601;-70
2021/04/12 00:03:40;;;;;;;10.52;8.50;;;3.00;99.90;;;;;;463522;256;27589;-70
2021/04/12 00:05:41;;;;;;;8.25;7.32;;;3.10;99.90;;;;;;463484;256;27602;-70
2021/04/12 00:07:42;;;;;;;11.10;8.25;;;3.10;99.90;;;;;;463424;256;27595;-70
2021/04/12 00:09:44;;;;;;;9.38;8.20;;;3.20;99.90;;;;;;463531;256;28042;-70
2021/04/12 00:11:45;;;;;;;8.05;7.05;;;3.20;99.90;;;;;;463535;256;28057;-70
2021/04/12 00:13:46;;;;;;;12.27;8.52;;;3.20;99.90;;;;;;463512;256;28026;-70
2021/04/12 00:15:48;;;;;;;9.77;7.50;;;3.20;99.90;;;;;;463544;256;27862;-70
2021/04/12 00:17:49;;;;;;;9.40;8.07;;;3.20;99.90;;;;;;463520;253;27577;-70
2021/04/12 00:19:50;;;;;;;9.40;8.05;;;3.10;99.90;;;;;;463536;256;27573;-71
2021/04/12 00:21:51;;;;;;;8.65;7.75;;;3.20;99.90;;;;;;463515;256;27573;-70
2021/04/12 00:23:53;;;;;;;9.65;7.70;;;3.20;99.90;;;;;;463560;256;27609;-70
2021/04/12 00:25:54;;;;;;;11.73;8.95;;;3.20;99.90;;;;;;463539;256;27574;-71
2021/04/12 00:27:55;;;;;;;11.82;9.40;;;3.10;99.90;;;;;;463508;256;27590;-70
2021/04/12 00:29:56;;;;;;;12.70;9.32;;;3.10;99.90;;;;;;463548;256;27590;-70
2021/04/12 00:31:58;;;;;;;11.25;8.10;;;3.10;99.90;;;;;;463448;256;28007;-70
2021/04/12 00:33:59;;;;;;;12.40;9.80;;;3.20;99.90;;;;;;463560;256;28147;-70
2021/04/12 00:36:00;;;;;;;9.75;8.30;;;3.10;99.90;;;;;;463542;256;28007;-70
2021/04/12 00:38:01;;;;;;;12.77;9.52;;;3.10;99.90;;;;;;463487;256;27686;-70
2021/04/12 00:40:03;;;;;;;10.43;8.40;;;3.10;99.90;;;;;;463513;256;27662;-70
2021/04/12 00:42:04;;;;;;;10.88;8.60;;;3.10;99.90;;;;;;463552;256;27544;-70
2021/04/12 00:44:05;;;;;;;13.02;8.90;;;3.20;99.90;;;;;;463560;256;27571;-70
2021/04/12 00:46:06;;;;;;;12.55;10.13;;;3.20;99.90;;;;;;463558;256;27625;-70
2021/04/12 00:48:08;;;;;;;13.98;11.15;;;3.10;99.90;;;;;;463533;256;27629;-70
2021/04/12 00:50:09;;;;;;;15.20;10.77;;;3.00;99.90;;;;;;463574;256;27609;-71
2021/04/12 00:52:10;;;;;;;15.73;12.00;;;3.00;99.90;;;;;;463575;256;28020;-70
2021/04/12 00:54:11;;;;;;;15.90;11.77;;;3.00;99.90;;;;;;463565;256;29136;-70
2021/04/12 00:56:13;;;;;;;16.50;11.73;;;3.10;99.90;;;;;;463605;256;27561;-70
2021/04/12 00:58:14;;;;;;;19.83;13.13;;;3.00;99.90;;;;;;463609;256;27537;-70
2021/04/12 01:00:15;;;;;;;16.60;12.13;;;3.00;99.90;;;;;;463687;256;27498;-70
2021/04/12 01:02:16;;;;;;;20.62;12.88;;;3.10;99.90;;;;;;463596;256;27543;-70
2021/04/12 01:04:18;;;;;;;19.25;13.40;;;3.10;99.90;;;;;;463570;256;27654;-70
2021/04/12 01:06:19;;;;;;;20.40;13.50;;;3.00;99.90;;;;;;463496;256;28945;-70
2021/04/12 01:08:20;;;;;;;22.20;14.38;;;3.00;99.90;;;;;;463429;256;28160;-70
2021/04/12 01:10:21;;;;;;;19.50;13.60;;;3.10;99.90;;;;;;463495;256;27573;-70
2021/04/12 01:12:23;;;;;;;20.90;13.45;;;3.10;99.90;;;;;;463551;256;27646;-70
2021/04/12 01:14:24;;;;;;;18.15;12.85;;;3.10;99.90;;;;;;463522;256;27560;-70
2021/04/12 01:16:25;;;;;;;19.80;12.77;;;3.10;99.90;;;;;;463524;256;27577;-71
2021/04/12 01:18:26;;;;;;;20.02;13.88;;;3.10;99.90;;;;;;463500;256;27578;-70
2021/04/12 01:20:28;;;;;;;18.00;13.15;;;3.10;99.90;;;;;;463521;256;28921;-70
2021/04/12 01:24:49;;;;;;;18.37;13.30;;;3.10;99.90;;;;;;463436;256;28235;-70
2021/04/12 01:31:55;;;;;;;21.40;15.40;;;3.10;99.90;;;;;;463529;256;27519;-70
2021/04/12 01:33:56;;;;;;;22.27;15.25;;;3.10;99.90;;;;;;463536;252;27573;-70
2021/04/12 01:35:57;;;;;;;19.90;14.10;;;3.10;99.90;;;;;;463533;256;27562;-70
2021/04/12 01:37:59;;;;;;;23.75;16.65;;;3.10;99.90;;;;;;463522;256;27545;-70
2021/04/12 01:40:00;;;;;;;22.15;15.50;;;3.20;99.90;;;;;;463499;256;27522;-70
2021/04/12 01:42:01;;;;;;;19.05;14.23;;;3.20;99.90;;;;;;463563;256;27965;-70
2021/04/12 01:44:02;;;;;;;23.15;15.65;;;3.20;99.90;;;;;;463516;256;28016;-71
2021/04/12 01:46:04;;;;;;;21.50;15.57;;;3.30;99.90;;;;;;463568;256;27711;-70
2021/04/12 01:48:05;;;;;;;23.77;14.90;;;3.30;99.90;;;;;;463558;256;27685;-70
2021/04/12 01:50:06;;;;;;;21.35;14.93;;;3.30;99.90;;;;;;462888;256;27715;-70
2021/04/12 01:52:07;;;;;;;24.77;17.42;;;3.30;99.90;;;;;;463566;256;27565;-70
2021/04/12 01:54:09;;;;;;;24.15;16.92;;;3.30;99.90;;;;;;463592;256;27626;-70
2021/04/12 01:56:10;;;;;;;20.75;15.40;;;3.20;99.90;;;;;;463526;256;28027;-70
2021/04/12 01:58:11;;;;;;;24.60;16.87;;;3.30;99.90;;;;;;463606;256;27984;-70
2021/04/12 02:00:12;;;;;;;23.25;15.35;;;3.30;99.90;;;;;;463618;256;27668;-70
2021/04/12 02:02:14;;;;;;;25.42;17.15;;;3.20;99.90;;;;;;463662;256;27497;-70
2021/04/12 02:04:15;;;;;;;25.52;17.70;;;3.20;99.90;;;;;;463670;256;27513;-70
2021/04/12 02:06:16;;;;;;;30.10;19.12;;;3.20;99.90;;;;;;463644;256;27581;-71
2021/04/12 02:08:17;;;;;;;28.77;18.65;;;3.20;99.90;;;;;;463615;256;27665;-70
2021/04/12 02:10:19;;;;;;;27.17;17.55;;;3.20;99.90;;;;;;463530;256;28035;-71
2021/04/12 02:12:20;;;;;;;22.52;16.33;;;3.20;99.90;;;;;;463578;256;29000;-71
2021/04/12 02:14:21;;;;;;;26.37;18.02;;;3.30;99.90;;;;;;463561;256;27613;-70
2021/04/12 02:16:23;;;;;;;28.12;17.75;;;3.20;99.90;;;;;;463535;256;27677;-71
2021/04/12 02:18:24;;;;;;;24.90;17.45;;;3.30;99.90;;;;;;463533;256;27572;-70
2021/04/12 02:20:25;;;;;;;26.12;16.85;;;3.20;99.90;;;;;;463521;256;28043;-70
2021/04/12 02:22:26;;;;;;;22.55;15.60;;;3.20;99.90;;;;;;463537;256;27969;-71
2021/04/12 02:24:27;;;;;;;26.70;17.73;;;3.20;99.90;;;;;;463560;256;27990;-70
2021/04/12 02:26:29;;;;;;;22.58;15.40;;;3.30;99.90;;;;;;463548;256;28028;-70
2021/04/12 02:28:30;;;;;;;25.12;16.17;;;3.30;99.90;;;;;;463482;256;27597;-71
2021/04/12 02:30:31;;;;;;;23.12;15.10;;;3.30;99.90;;;;;;463509;256;27575;-70
2021/04/12 02:32:32;;;;;;;27.60;17.42;;;3.30;99.90;;;;;;463545;256;27561;-70
2021/04/12 02:34:34;;;;;;;24.30;16.48;;;3.30;99.90;;;;;;463567;253;27550;-70
2021/04/12 02:36:35;;;;;;;22.92;16.12;;;3.20;99.90;;;;;;463489;256;27605;-70
2021/04/12 02:38:36;;;;;;;25.62;16.73;;;3.20;99.90;;;;;;463505;252;28028;-70
2021/04/12 02:40:38;;;;;;;23.52;16.70;;;3.30;99.90;;;;;;463563;256;27494;-70
2021/04/12 02:42:39;;;;;;;22.62;16.05;;;3.30;99.90;;;;;;463626;256;27573;-70
2021/04/12 02:44:40;;;;;;;24.80;15.68;;;3.30;99.90;;;;;;463612;256;27568;-70
2021/04/12 02:46:41;;;;;;;26.33;17.58;;;3.30;99.90;;;;;;463635;256;27653;-70
2021/04/12 02:48:43;;;;;;;25.25;17.65;;;3.20;99.90;;;;;;463669;256;27578;-71
2021/04/12 02:50:44;;;;;;;24.25;16.45;;;3.20;99.90;;;;;;463638;256;28105;-70
2021/04/12 02:52:45;;;;;;;25.80;17.33;;;3.20;99.90;;;;;;463560;256;28028;-70
2021/04/12 02:54:47;;;;;;;23.30;15.60;;;3.20;99.90;;;;;;463547;256;27679;-70
2021/04/12 02:56:48;;;;;;;25.20;16.15;;;3.10;99.90;;;;;;463557;256;27645;-70
2021/04/12 02:58:49;;;;;;;25.45;17.08;;;3.10;99.90;;;;;;463519;256;27695;-70
2021/04/12 03:00:50;;;;;;;24.80;16.20;;;3.10;99.90;;;;;;463496;256;27605;-70
2021/04/12 03:02:51;;;;;;;22.60;16.48;;;3.10;99.90;;;;;;463614;256;27547;-70
2021/04/12 03:04:53;;;;;;;26.42;17.75;;;3.00;99.90;;;;;;463579;256;28164;-70
2021/04/12 03:06:54;;;;;;;23.08;16.27;;;3.00;99.90;;;;;;463530;256;28159;-71
2021/04/12 03:08:55;;;;;;;23.87;16.40;;;2.90;99.90;;;;;;463525;256;29173;-70
2021/04/12 03:10:57;;;;;;;21.80;14.93;;;3.00;99.90;;;;;;463565;256;27592;-70
2021/04/12 03:12:58;;;;;;;24.25;16.80;;;3.00;99.90;;;;;;463471;256;27585;-70
2021/04/12 03:14:59;;;;;;;26.60;17.30;;;3.00;99.90;;;;;;463568;256;27652;-70
2021/04/12 03:17:00;;;;;;;26.27;17.20;;;3.00;99.90;;;;;;463641;256;27592;-70
2021/04/12 03:19:02;;;;;;;25.17;17.33;;;2.90;99.90;;;;;;463653;256;27642;-71
2021/04/12 03:21:03;;;;;;;24.50;16.55;;;2.90;99.90;;;;;;463572;256;28074;-71
2021/04/12 03:23:04;;;;;;;24.25;15.70;;;2.90;99.90;;;;;;463572;256;27916;-70
2021/04/12 03:25:05;;;;;;;26.40;16.15;;;2.90;99.90;;;;;;463534;256;27565;-71
2021/04/12 03:27:06;;;;;;;30.52;14.73;;;2.90;99.90;;;;;;463558;256;27685;-70
2021/04/12 03:29:08;;;;;;;19.65;14.45;;;2.90;99.90;;;;;;463552;256;27543;-70
2021/04/12 03:31:09;;;;;;;22.48;14.13;;;3.00;99.90;;;;;;463567;256;27685;-71
2021/04/12 03:33:10;;;;;;;22.70;15.15;;;2.90;99.90;;;;;;463567;256;27585;-70
2021/04/12 03:35:11;;;;;;;19.42;14.80;;;2.90;99.90;;;;;;463541;253;28159;-70
2021/04/12 03:37:13;;;;;;;23.40;15.50;;;3.00;99.90;;;;;;463660;256;27983;-70
2021/04/12 03:39:14;;;;;;;25.35;16.73;;;3.00;99.90;;;;;;463676;256;27980;-70
2021/04/12 03:41:15;;;;;;;20.37;13.95;;;3.00;99.90;;;;;;463641;256;27584;-70
2021/04/12 03:43:16;;;;;;;20.85;14.30;;;3.00;99.90;;;;;;463554;256;27530;-70
2021/04/12 03:45:18;;;;;;;21.17;13.95;;;3.00;99.90;;;;;;463394;256;27573;-70
2021/04/12 03:47:19;;;;;;;20.70;15.05;;;3.00;99.90;;;;;;463516;256;27660;-70
2021/04/12 03:49:20;;;;;;;16.80;13.55;;;3.00;99.90;;;;;;463538;256;27605;-70
2021/04/12 03:51:22;;;;;;;17.15;13.23;;;2.90;99.90;;;;;;463556;256;28035;-71
2021/04/12 03:53:23;;;;;;;20.35;14.55;;;3.00;99.90;;;;;;463540;256;28149;-71
2021/04/12 03:55:24;;;;;;;17.40;13.65;;;3.00;99.90;;;;;;463546;256;27555;-71
2021/04/12 03:57:25;;;;;;;21.20;14.70;;;3.00;99.90;;;;;;463513;256;27566;-71
2021/04/12 03:59:28;;;;;;;16.12;11.80;;;2.90;99.90;;;;;;463541;256;27638;-70
2021/04/12 04:01:28;;;;;;;22.95;13.77;;;2.90;99.90;;;;;;463541;256;27660;-70
2021/04/12 04:03:29;;;;;;;21.80;15.57;;;2.90;99.90;;;;;;463551;256;27660;-70
2021/04/12 04:05:30;;;;;;;20.50;15.05;;;2.90;99.90;;;;;;463523;256;28113;-71
2021/04/12 04:07:32;;;;;;;21.33;15.25;;;2.90;99.90;;;;;;463505;256;29251;-71
2021/04/12 04:09:33;;;;;;;19.00;13.80;;;2.90;99.90;;;;;;463511;256;27662;-70
2021/04/12 04:11:34;;;;;;;18.92;12.98;;;2.90;99.90;;;;;;463529;256;27692;-70
2021/04/12 04:13:35;;;;;;;26.37;16.48;;;2.90;99.90;;;;;;463555;256;27626;-70
2021/04/12 04:15:37;;;;;;;20.27;14.07;;;2.80;99.90;;;;;;463604;256;27594;-70
2021/04/12 04:17:38;;;;;;;23.87;15.45;;;2.80;99.90;;;;;;463529;256;27665;-70
2021/04/12 04:19:39;;;;;;;21.23;14.82;;;2.80;99.90;;;;;;463614;253;28048;-70
2021/04/12 04:21:40;;;;;;;19.08;14.30;;;2.80;99.90;;;;;;463546;256;28154;-70
2021/04/12 04:23:42;;;;;;;19.98;14.73;;;2.80;99.90;;;;;;463495;256;27673;-70
2021/04/12 04:25:43;;;;;;;17.00;12.85;;;2.80;99.90;;;;;;463550;256;27570;-70
2021/04/12 04:27:44;;;;;;;18.55;13.52;;;2.80;99.90;;;;;;463532;256;27558;-70
2021/04/12 04:29:45;;;;;;;21.70;14.68;;;2.80;99.90;;;;;;463541;256;27660;-70
2021/04/12 04:31:47;;;;;;;20.73;13.80;;;2.80;99.90;;;;;;463554;256;27576;-70
2021/04/12 04:33:48;;;;;;;20.40;14.07;;;2.80;99.90;;;;;;463521;256;27680;-71
2021/04/12 04:35:49;;;;;;;16.55;12.65;;;2.80;99.90;;;;;;463508;256;28829;-70
2021/04/12 04:37:51;;;;;;;17.52;12.30;;;2.80;99.90;;;;;;463540;256;28054;-70
2021/04/12 04:39:52;;;;;;;20.30;15.15;;;2.80;99.90;;;;;;463440;256;27565;-70
2021/04/12 04:41:53;;;;;;;20.35;14.13;;;2.80;99.90;;;;;;463559;256;27523;-71
2021/04/12 04:43:54;;;;;;;21.37;14.27;;;2.70;99.90;;;;;;462890;256;27560;-70
2021/04/12 04:45:55;;;;;;;19.42;13.52;;;2.70;99.90;;;;;;462946;256;27591;-71
2021/04/12 04:47:57;;;;;;;20.17;14.60;;;2.70;99.90;;;;;;463669;256;27610;-70
2021/04/12 04:49:58;;;;;;;19.95;14.02;;;2.70;99.90;;;;;;463653;256;28072;-70
2021/04/12 04:51:59;;;;;;;19.08;14.02;;;2.70;99.90;;;;;;463595;256;28015;-70
2021/04/12 04:54:00;;;;;;;19.73;12.70;;;2.70;99.90;;;;;;463522;256;27569;-70
2021/04/12 04:56:02;;;;;;;22.87;13.38;;;2.80;99.90;;;;;;463551;256;27570;-70
2021/04/12 04:58:03;;;;;;;22.02;14.85;;;2.80;99.90;;;;;;463518;256;27558;-70
2021/04/12 05:00:04;;;;;;;19.42;13.25;;;2.80;99.90;;;;;;463581;256;27649;-70
2021/04/12 05:02:06;;;;;;;19.77;15.07;;;2.80;99.90;;;;;;463551;256;28027;-71
2021/04/12 05:04:07;;;;;;;20.50;14.80;;;2.80;99.90;;;;;;463522;256;27590;-71
2021/04/12 05:06:08;;;;;;;18.25;12.82;;;2.80;99.90;;;;;;463552;256;28108;-71
2021/04/12 05:08:09;;;;;;;18.55;13.05;;;2.80;99.90;;;;;;463577;256;28083;-71
2021/04/12 05:10:11;;;;;;;17.00;12.90;;;2.80;99.90;;;;;;463509;256;27656;-70
2021/04/12 05:12:12;;;;;;;18.17;13.00;;;2.80;99.90;;;;;;463519;256;27705;-70
2021/04/12 05:14:13;;;;;;;17.98;13.23;;;2.80;99.90;;;;;;463511;256;27570;-70
2021/04/12 05:16:14;;;;;;;18.23;12.68;;;2.80;99.90;;;;;;463519;253;27593;-70
2021/04/12 05:18:16;;;;;;;16.95;12.50;;;2.70;99.90;;;;;;463534;256;27696;-70
2021/04/12 05:20:17;;;;;;;19.40;14.32;;;2.70;99.90;;;;;;463481;256;28021;-70
2021/04/12 05:22:18;;;;;;;18.37;14.07;;;2.70;99.90;;;;;;463533;256;28215;-70
2021/04/12 05:24:19;;;;;;;21.37;15.38;;;2.70;99.90;;;;;;463539;256;27573;-70
2021/04/12 05:26:21;;;;;;;20.45;13.80;;;2.70;99.90;;;;;;463553;256;27684;-70
2021/04/12 05:28:22;;;;;;;19.48;13.77;;;2.70;99.90;;;;;;463564;256;27692;-70
2021/04/12 05:30:23;;;;;;;17.50;13.25;;;2.70;99.90;;;;;;463547;256;27581;-70
2021/04/12 05:32:24;;;;;;;19.02;13.77;;;2.70;99.90;;;;;;463543;256;27578;-70
2021/04/12 05:34:26;;;;;;;19.60;13.52;;;2.70;99.90;;;;;;463461;256;28016;-70
2021/04/12 05:36:27;;;;;;;21.25;14.32;;;2.80;99.90;;;;;;463554;256;28096;-71
2021/04/12 05:38:28;;;;;;;20.40;14.30;;;2.80;99.90;;;;;;463527;256;27593;-70
2021/04/12 05:40:29;;;;;;;18.35;13.98;;;2.80;99.90;;;;;;463529;256;27574;-71
2021/04/12 05:42:31;;;;;;;16.00;12.23;;;2.90;99.90;;;;;;463573;256;27589;-70
2021/04/12 05:44:32;;;;;;;21.35;14.35;;;2.90;99.90;;;;;;463627;256;27673;-71
2021/04/12 05:46:33;;;;;;;19.87;13.75;;;3.00;99.90;;;;;;463624;256;27625;-70
2021/04/12 05:48:34;;;;;;;17.05;12.27;;;3.00;99.90;;;;;;463252;256;28142;-70
2021/04/12 05:50:36;;;;;;;19.45;12.65;;;3.00;99.90;;;;;;463498;256;28072;-71
2021/04/12 05:52:37;;;;;;;18.65;13.77;;;3.00;99.90;;;;;;463487;252;27561;-71
2021/04/12 05:54:38;;;;;;;16.23;11.98;;;3.10;99.90;;;;;;463519;256;27668;-70
2021/04/12 05:56:39;;;;;;;20.65;13.57;;;3.00;99.90;;;;;;463556;252;27621;-71
2021/04/12 05:58:41;;;;;;;16.55;12.45;;;3.00;99.90;;;;;;463477;256;27598;-70
2021/04/12 06:00:42;;;;;;;15.68;12.18;;;3.10;99.90;;;;;;463486;256;27572;-70
2021/04/12 06:02:43;;;;;;;17.73;12.98;;;3.00;99.90;;;;;;463481;256;28001;-70
2021/04/12 06:04:45;;;;;;;16.12;12.25;;;3.00;99.90;;;;;;463556;256;28148;-70
2021/04/12 06:06:46;;;;;;;17.12;12.80;;;3.00;99.90;;;;;;463602;256;27525;-70
2021/04/12 06:08:47;;;;;;;19.12;14.00;;;3.00;99.90;;;;;;463445;256;27674;-70
2021/04/12 06:10:48;;;;;;;18.02;12.55;;;3.10;99.90;;;;;;463580;256;27572;-69
2021/04/12 06:12:50;;;;;;;17.10;11.88;;;3.10;99.90;;;;;;463600;256;27657;-69
2021/04/12 06:14:51;;;;;;;15.55;11.20;;;3.10;99.90;;;;;;466905;252;27665;-69
2021/04/12 06:16:52;;;;;;;16.98;12.18;;;3.10;99.90;;;;;;471497;252;27499;-68
2021/04/12 06:18:53;;;;;;;18.85;12.40;;;3.10;99.90;;;;;;470511;251;27438;-68
2021/04/12 06:20:55;;;;;;;14.82;11.15;;;3.30;99.90;;;;;;467898;250;27405;-69
2021/04/12 06:22:56;;;;;;;16.12;11.90;;;3.20;99.90;;;;;;463237;252;27499;-68
2021/04/12 06:24:57;;;;;;;14.82;10.90;;;3.30;99.90;;;;;;463464;255;28068;-68
2021/04/12 06:26:58;;;;;;;13.93;9.95;;;3.40;99.90;;;;;;463011;250;28746;-68
2021/04/12 06:29:00;;;;;;;13.02;10.05;;;3.40;99.90;;;;;;462825;256;27571;-69
2021/04/12 06:31:01;;;;;;;12.52;10.02;;;3.40;99.90;;;;;;465986;249;28514;-69
2021/04/12 06:33:02;;;;;;;14.23;11.15;;;3.30;99.90;;;;;;450028;263;28033;-68
2021/04/12 06:35:03;;;;;;;17.95;10.25;;;3.30;99.90;;;;;;450046;262;27500;-68
2021/04/12 06:37:05;;;;;;;12.60;9.85;;;3.30;99.90;;;;;;449999;263;27457;-70
2021/04/12 06:39:06;;;;;;;15.02;10.00;;;3.30;99.90;;;;;;450025;262;27442;-69
2021/04/12 06:41:07;;;;;;;13.57;9.70;;;3.30;99.90;;;;;;449933;262;27516;-68
2021/04/12 06:43:09;;;;;;;11.73;9.15;;;3.30;99.90;;;;;;450028;262;27438;-66
2021/04/12 06:47:14;;;;;;;14.70;10.00;;;3.50;99.90;;;;;;452923;256;27673;-67
2021/04/12 06:49:15;;;;;;;12.68;8.85;;;3.60;99.90;;;;;;456853;256;27520;-68
2021/04/12 06:51:16;;;;;;;9.20;8.25;;;3.60;99.90;;;;;;447917;265;27614;-69
2021/04/12 06:53:18;;;;;;;15.38;9.38;;;3.60;99.90;;;;;;453364;261;28116;-69
2021/04/12 06:55:19;;;;;;;12.23;8.55;;;3.60;99.90;;;;;;453619;262;27926;-69
2021/04/12 06:57:20;;;;;;;12.48;9.77;;;3.70;99.90;;;;;;453519;262;27473;-69
2021/04/12 06:59:22;;;;;;;15.25;9.20;;;3.70;99.90;;;;;;453602;262;27523;-68
2021/04/12 07:01:23;;;;;;;12.95;8.82;;;3.70;99.90;;;;;;453477;262;27568;-69
2021/04/12 07:03:24;;;;;;;11.10;8.73;;;3.70;99.90;;;;;;453666;262;27485;-69
2021/04/12 07:05:25;;;;;;;13.15;8.52;;;3.60;99.90;;;;;;453450;262;27615;-69
2021/04/12 07:07:26;;;;;;;9.57;8.27;;;3.70;99.90;;;;;;453522;262;27497;-68
2021/04/12 07:09:29;;;;;;;13.88;8.80;;;3.80;99.90;;;;;;453584;262;28888;-69
2021/04/12 07:11:30;;;;;;;10.63;7.43;;;3.80;99.90;;;;;;453575;262;28007;-68
2021/04/12 07:13:31;;;;;;;10.10;7.95;;;3.80;99.90;;;;;;453558;262;28057;-69
2021/04/12 07:15:33;;;;;;;9.45;8.10;;;3.90;99.90;;;;;;454789;250;27558;-71
2021/04/12 07:17:34;;;;;;;12.00;8.07;;;3.90;99.90;;;;;;461381;253;27411;-69
2021/04/12 07:19:35;;;;;;;8.65;7.85;;;4.00;99.90;;;;;;461237;252;27585;-69
2021/04/12 07:21:36;;;;;;;16.62;8.60;;;4.10;99.90;;;;;;453258;261;27487;-69
2021/04/12 07:23:38;;;;;;;12.98;8.55;;;4.10;99.90;;;;;;461145;256;27993;-69
2021/04/12 07:25:39;;;;;;;9.68;7.10;;;4.00;99.90;;;;;;453336;261;27446;-69
2021/04/12 07:27:40;;;;;;;8.18;7.37;;;3.90;99.90;;;;;;461164;256;28026;-68
2021/04/12 07:29:41;;;;;;;9.90;6.85;;;4.00;99.90;;;;;;453225;261;28126;-69
2021/04/12 07:31:43;;;;;;;10.55;7.85;;;4.00;99.90;;;;;;461133;256;27569;-69
2021/04/12 07:33:44;;;;;;;11.25;7.93;;;4.00;99.90;;;;;;453276;261;27500;-69
2021/04/12 07:35:45;;;;;;;9.18;8.00;;;4.10;99.90;;;;;;461216;256;27519;-69
2021/04/12 07:37:46;;;;;;;11.50;8.63;;;3.90;99.90;;;;;;453277;261;27485;-68
2021/04/12 07:39:48;;;;;;;8.57;7.65;;;3.90;99.90;;;;;;461166;256;27560;-68
2021/04/12 07:41:50;;;;;;;14.48;7.22;;;3.90;99.90;;;;;;453262;261;27955;-67
2021/04/12 07:43:50;;;;;;;11.00;7.72;;;3.80;99.90;;;;;;461000;257;28101;-68
2021/04/12 07:46:01;;;;;;;10.05;7.62;;;3.90;99.90;;;;;;456808;252;27458;-68
2021/04/12 07:47:59;;;;;;;10.30;7.43;;;3.90;99.90;;;;;;486026;242;27460;-68
2021/04/12 07:50:00;;;;;;;9.00;7.25;;;4.00;99.90;;;;;;490226;242;27707;-68
2021/04/12 07:52:01;;;;;;;9.52;7.15;;;3.90;99.90;;;;;;490222;242;28067;-69
2021/04/12 07:54:02;;;;;;;12.88;7.57;;;3.90;99.90;;;;;;479592;246;27844;-68
2021/04/12 07:56:04;;;;;;;13.80;7.40;;;3.80;99.90;;;;;;490296;242;27473;-69
2021/04/12 07:58:05;;;;;;;10.63;7.53;;;3.90;99.90;;;;;;490380;242;27579;-69
2021/04/12 08:00:06;;;;;;;7.95;6.32;;;3.80;99.90;;;;;;490285;242;27523;-69
2021/04/12 08:02:08;;;;;;;11.88;7.10;;;4.00;99.90;;;;;;471905;246;27515;-68
2021/04/12 08:04:09;;;;;;;7.50;6.70;;;4.10;99.90;;;;;;468963;252;27428;-68
2021/04/12 08:06:10;;;;;;;15.15;7.28;;;4.20;99.90;;;;;;468945;252;27925;-69
2021/04/12 08:08:11;;;;;;;12.30;8.40;;;4.10;99.90;;;;;;468895;252;28655;-68
2021/04/12 08:10:13;;;;;;;9.68;7.75;;;4.00;99.90;;;;;;470015;252;27532;-68
2021/04/12 08:12:14;;;;;;;11.57;7.80;;;3.70;99.90;;;;;;470598;251;27646;-69
2021/04/12 08:14:15;;;;;;;11.35;7.40;;;3.60;99.90;;;;;;470677;251;27663;-68
2021/04/12 08:16:16;;;;;;;10.82;7.90;;;3.60;99.90;;;;;;470583;251;27656;-68
2021/04/12 08:18:18;;;;;;;12.65;7.80;;;3.70;99.90;;;;;;470677;251;27513;-67
2021/04/12 08:20:19;;;;;;;8.95;7.03;;;3.90;99.90;;;;;;470804;251;28045;-68
2021/04/12 08:22:21;;;;;;;9.35;6.43;;;4.00;99.90;;;;;;470794;251;28101;-69
2021/04/12 08:24:21;;;;;;;9.15;6.87;;;4.30;99.90;;;;;;470747;251;27969;-69
2021/04/12 08:26:23;;;;;;;11.82;6.97;;;4.50;99.90;;;;;;470075;251;27673;-68
2021/04/12 08:28:24;;;;;;;10.13;6.57;;;4.60;99.90;;;;;;469547;251;27641;-69
2021/04/12 08:30:25;;;;;;;8.75;6.55;;;4.70;99.90;;;;;;469817;251;27563;-68
2021/04/12 08:32:26;;;;;;;7.97;6.75;;;4.90;99.90;;;;;;470471;251;27560;-68
2021/04/12 08:34:28;;;;;;;7.47;5.37;;;4.80;99.90;;;;;;470694;251;28138;-68
2021/04/12 08:36:29;;;;;;;7.82;5.28;;;4.50;99.90;;;;;;470620;251;28104;-67
2021/04/12 08:38:30;;;;;;;6.05;4.85;;;4.30;99.90;;;;;;470632;251;27557;-69
2021/04/12 08:40:33;;;;;;;8.02;5.40;;;4.20;99.90;;;;;;470649;251;27581;-68
2021/04/12 08:42:33;;;;;;;7.05;5.00;;;4.30;99.90;;;;;;470650;251;27564;-69
2021/04/12 08:44:34;;;;;;;8.45;5.78;;;4.30;99.90;;;;;;470614;251;27513;-68
2021/04/12 08:46:35;;;;;;;5.50;4.10;;;4.50;99.90;;;;;;470586;251;27632;-69
2021/04/12 08:48:36;;;;;;;5.28;4.15;;;4.30;99.90;;;;;;470642;251;28133;-69
2021/04/12 08:50:38;;;;;;;4.87;3.30;;;4.50;99.90;;;;;;470567;251;28098;-68
2021/04/12 08:52:39;;;;;;;4.10;3.80;;;4.40;99.90;;;;;;470377;251;27672;-68
2021/04/12 08:54:40;;;;;;;4.45;3.67;;;4.50;99.90;;;;;;470344;251;27564;-69
2021/04/12 08:56:41;;;;;;;6.18;3.53;;;4.60;99.90;;;;;;470297;251;27641;-69
2021/04/12 08:58:43;;;;;;;3.92;3.47;;;4.60;99.90;;;;;;470294;251;27581;-68
2021/04/12 09:00:44;;;;;;;6.40;3.62;;;4.70;99.90;;;;;;470396;251;27524;-68
2021/04/12 09:02:45;;;;;;;7.15;4.40;;;4.80;99.90;;;;;;470333;251;28039;-68
2021/04/12 09:04:48;;;;;;;4.00;3.70;;;5.00;99.90;;;;;;470358;251;28038;-69
2021/04/12 09:06:48;;;;;;;6.93;5.00;;;5.10;99.90;;;;;;470388;251;27555;-69
2021/04/12 09:08:49;;;;;;;4.85;4.37;;;4.80;99.90;;;;;;470432;251;27546;-68
2021/04/12 09:10:50;;;;;;;7.70;4.40;;;4.80;99.90;;;;;;470559;251;27683;-69
2021/04/12 09:12:52;;;;;;;5.45;4.25;;;4.70;99.90;;;;;;470595;251;27581;-69
2021/04/12 09:14:53;;;;;;;5.37;4.00;;;4.70;99.90;;;;;;470609;251;27642;-69
2021/04/12 09:16:54;;;;;;;5.00;3.77;;;4.90;99.90;;;;;;470596;251;29345;-68
2021/04/12 09:18:55;;;;;;;4.12;3.80;;;5.20;99.90;;;;;;470596;251;28454;-68
2021/04/12 09:20:57;;;;;;;5.17;3.40;;;5.40;99.90;;;;;;470648;251;28023;-70
2021/04/12 09:22:58;;;;;;;3.50;3.17;;;5.50;99.90;;;;;;470646;251;28140;-70
2021/04/12 09:24:59;;;;;;;5.43;3.87;;;5.50;99.90;;;;;;470601;251;28057;-68
2021/04/12 09:27:00;;;;;;;3.80;3.30;;;5.60;99.90;;;;;;470630;251;27653;-68
2021/04/12 09:29:02;;;;;;;3.93;3.47;;;5.70;99.90;;;;;;470575;251;28206;-68
2021/04/12 09:31:03;;;;;;;6.43;3.77;;;5.80;99.90;;;;;;470659;251;27791;-68
2021/04/12 09:33:04;;;;;;;10.73;3.43;;;5.80;99.90;;;;;;470709;251;28124;-69
2021/04/12 09:35:05;;;;;;;3.33;3.03;;;5.70;99.90;;;;;;470573;251;28249;-68
2021/04/12 09:37:07;;;;;;;7.57;3.90;;;5.60;99.90;;;;;;470636;251;28065;-69
2021/04/12 09:39:08;;;;;;;3.97;3.10;;;5.70;99.90;;;;;;470669;251;28112;-68
2021/04/12 09:41:09;;;;;;;3.73;3.30;;;5.70;99.90;;;;;;470636;251;28382;-68
2021/04/12 09:43:10;;;;;;;4.70;3.17;;;5.60;99.90;;;;;;470637;251;28154;-69
2021/04/12 09:45:12;;;;;;;3.27;2.97;;;5.70;99.90;;;;;;470617;249;28387;-68
2021/04/12 09:47:13;;;;;;;3.13;2.83;;;5.50;99.90;;;;;;470688;251;28011;-69
2021/04/12 09:49:14;;;;;;;4.33;2.90;;;5.50;99.90;;;;;;470740;251;28553;-68
2021/04/12 09:51:15;;;;;;;3.73;3.33;;;5.40;99.90;;;;;;470640;251;28482;-68
2021/04/12 09:53:17;;;;;;;3.77;3.20;;;5.40;99.90;;;;;;470654;251;29078;-68
2021/04/12 09:55:18;;;;;;;3.47;3.10;;;5.30;99.90;;;;;;470675;251;28661;-68
2021/04/12 09:57:19;;;;;;;6.20;3.70;;;5.30;99.90;;;;;;470653;251;28463;-68
2021/04/12 09:59:20;;;;;;;4.00;3.50;;;5.30;99.90;;;;;;470677;251;28688;-67
2021/04/12 10:01:22;;;;;;;4.55;3.22;;;5.40;99.90;;;;;;470682;251;28900;-68
2021/04/12 10:03:23;;;;;;;6.27;3.43;;;5.50;99.90;;;;;;470602;251;27560;-69
2021/04/12 10:05:24;;;;;;;3.00;2.80;;;5.40;99.90;;;;;;470689;251;28892;-68
2021/04/12 10:07:25;;;;;;;2.78;2.58;;;5.50;99.90;;;;;;470587;251;27555;-68
2021/04/12 10:09:27;;;;;;;3.03;2.50;;;5.60;99.90;;;;;;470678;251;27643;-68
2021/04/12 10:11:28;;;;;;;4.85;2.45;;;5.90;99.90;;;;;;470673;251;28128;-67
2021/04/12 10:13:29;;;;;;;5.53;2.33;;;6.20;99.90;;;;;;470827;251;29106;-69
2021/04/12 10:15:30;;;;;;;1.80;1.70;;;6.40;99.90;;;;;;470734;251;27983;-68
2021/04/12 10:17:32;;;;;;;1.87;1.77;;;6.40;99.90;;;;;;470704;251;28536;-69
2021/04/12 10:19:33;;;;;;;3.23;1.80;;;6.70;99.90;;;;;;470638;251;28475;-67
2021/04/12 10:21:34;;;;;;;2.00;1.87;;;6.80;99.90;;;;;;470616;251;28055;-67
2021/04/12 10:23:35;;;;;;;5.10;2.10;;;6.90;99.90;;;;;;470626;251;27876;-70
2021/04/12 10:25:37;;;;;;;2.13;2.03;;;6.50;99.90;;;;;;470646;251;27645;-70
2021/04/12 10:27:38;;;;;;;2.47;2.00;;;6.00;99.90;;;;;;470729;251;28019;-70
2021/04/12 10:29:39;;;;;;;3.30;2.40;;;5.70;99.90;;;;;;470679;251;28034;-69
2021/04/12 10:31:40;;;;;;;2.10;2.00;;;5.70;99.90;;;;;;470680;249;28026;-69
2021/04/12 10:33:42;;;;;;;2.10;1.87;;;6.00;99.90;;;;;;470654;251;27677;-69
2021/04/12 10:35:43;;;;;;;1.70;1.60;;;6.10;99.90;;;;;;470604;251;28057;-69
2021/04/12 10:37:44;;;;;;;2.03;1.87;;;6.30;99.90;;;;;;470591;251;28078;-69